SAME/MDZ METAR and TAF weather

Enter ICAO airport designator
Station Type Date Time Source
SAME METAR 2023/09/27 01:00 UTC NOAA

SAME 270100Z 32003KT CAVOK 13/01 Q1023


Station Type Date Time Source
SAME Decoded METAR 2023/09/27 01:00 UTC NOAA

Mendoza Aerodrome, Argentina (SAME) 32-50S 068-47W 704M
Sep 26, 2023 - 09:00 PM EDT / 2023.09.27 0100 UTC
Wind: from the NW (320 degrees) at 3 MPH (3 KT):0
Visibility: greater than 7 mile(s):0
Temperature: 55 F (13 C)
Dew Point: 33 F (1 C)
Relative Humidity: 43%
Pressure (altimeter): 30.21 in. Hg (1023 hPa)
ob: SAME 270100Z 32003KT CAVOK 13/01 Q1023
cycle: 1

Station Type Date Time Source
SAME TAF 2023/09/27 00:00 UTC NOAA

TAF SAME 262300Z 2700/2724 02005KT CAVOK TX26/2720Z TN07/2710Z
BECMG 2612/2614 02010KT 9999 FEW040

Example: see airport list